Time;durP1;ratioP1;P1;durP2;ratioP2;P2;SDS_P1;SDS_P2;PMS_P1;PMS_P2;Temp;Humidity;BMP_temperature;BMP_pressure;BME280_temperature;BME280_humidity;BME280_pressure;Samples;Min_cycle;Max_cycle;Signal;HPM_P1;HPM_P2
2023/12/23 00:02:35;;;;;;;4.45;2.05;;;23.30;39.00;;;;;;6150454;28;81380;-61
2023/12/23 00:05:36;;;;;;;5.07;2.60;;;23.30;39.20;;;;;;6144204;28;82076;-60
2023/12/23 00:08:36;;;;;;;4.22;2.00;;;23.30;38.90;;;;;;6163792;28;81268;-60
2023/12/23 00:11:36;;;;;;;5.03;2.22;;;23.30;38.70;;;;;;6154958;28;81447;-59
2023/12/23 00:14:37;;;;;;;7.65;1.90;;;23.30;39.50;;;;;;6164567;28;80687;-61
2023/12/23 00:17:37;;;;;;;4.75;2.30;;;23.30;40.00;;;;;;6165191;28;81068;-61
2023/12/23 00:20:38;;;;;;;3.08;1.88;;;23.30;39.80;;;;;;6152607;28;80645;-61
2023/12/23 00:23:38;;;;;;;4.80;1.73;;;23.30;38.80;;;;;;6153891;28;80553;-67
2023/12/23 00:26:39;;;;;;;4.97;2.03;;;23.30;38.90;;;;;;6165551;28;80756;-66
2023/12/23 00:29:39;;;;;;;4.20;2.58;;;23.30;39.40;;;;;;6154846;28;81831;-64
2023/12/23 00:32:40;;;;;;;4.13;1.95;;;23.20;39.90;;;;;;6174105;28;81642;-66
2023/12/23 00:35:41;;;;;;;2.97;1.67;;;23.30;40.00;;;;;;6154406;28;82985;-66
2023/12/23 00:38:42;;;;;;;4.25;1.58;;;23.20;39.90;;;;;;6155043;28;80843;-66
2023/12/23 00:41:42;;;;;;;6.68;1.90;;;23.20;40.20;;;;;;6167044;28;80732;-65
2023/12/23 00:44:43;;;;;;;6.35;1.88;;;23.20;40.10;;;;;;6156160;28;81636;-65
2023/12/23 00:47:43;;;;;;;3.78;2.10;;;23.20;40.00;;;;;;6171493;28;80435;-64
2023/12/23 00:50:44;;;;;;;3.70;1.58;;;23.20;39.90;;;;;;6175381;28;80753;-65
2023/12/23 00:53:44;;;;;;;3.22;1.77;;;23.10;39.80;;;;;;6176720;28;80407;-66
2023/12/23 00:56:45;;;;;;;2.55;1.60;;;23.20;39.90;;;;;;6176030;28;80563;-64
2023/12/23 00:59:45;;;;;;;3.03;1.42;;;23.10;39.90;;;;;;6175365;28;83004;-64
2023/12/23 01:02:46;;;;;;;6.22;1.58;;;23.20;39.90;;;;;;6176073;28;82043;-65
2023/12/23 01:05:46;;;;;;;4.32;2.30;;;23.20;39.80;;;;;;6169868;28;81554;-63
2023/12/23 01:08:47;;;;;;;3.42;1.50;;;23.20;40.00;;;;;;6180287;28;83680;-63
2023/12/23 01:11:47;;;;;;;3.20;1.52;;;23.20;39.80;;;;;;6155329;28;81258;-64
2023/12/23 01:14:48;;;;;;;3.65;2.25;;;23.20;39.90;;;;;;6158480;28;80376;-64
2023/12/23 01:17:48;;;;;;;3.40;1.60;;;23.20;39.90;;;;;;6164277;28;82922;-64
2023/12/23 01:20:49;;;;;;;3.65;1.48;;;23.10;39.90;;;;;;6153871;28;83827;-65
2023/12/23 01:23:49;;;;;;;3.35;1.33;;;23.20;40.00;;;;;;6185960;28;82466;-64
2023/12/23 01:26:50;;;;;;;2.58;1.55;;;23.20;40.00;;;;;;6176147;28;80809;-61
2023/12/23 01:29:50;;;;;;;2.90;1.52;;;23.10;39.90;;;;;;6167429;28;80627;-64
2023/12/23 01:32:51;;;;;;;4.63;1.55;;;23.10;39.90;;;;;;6153322;28;80651;-65
2023/12/23 01:35:51;;;;;;;4.00;1.83;;;23.20;40.20;;;;;;6153416;28;81065;-66
2023/12/23 01:38:52;;;;;;;3.88;1.67;;;23.10;40.00;;;;;;6152909;28;80941;-66
2023/12/23 01:41:52;;;;;;;4.15;1.92;;;23.10;39.80;;;;;;6155690;28;80552;-67
2023/12/23 01:44:53;;;;;;;3.33;1.50;;;23.10;39.60;;;;;;6154028;28;80949;-67
2023/12/23 01:47:54;;;;;;;3.20;1.48;;;23.10;39.40;;;;;;6170429;28;80345;-66
2023/12/23 01:50:54;;;;;;;3.50;1.45;;;23.10;39.50;;;;;;6175733;28;82142;-66
2023/12/23 01:53:55;;;;;;;4.05;1.70;;;23.10;39.10;;;;;;6175314;28;81021;-58
2023/12/23 01:56:56;;;;;;;2.75;1.83;;;23.10;39.50;;;;;;6175634;28;80433;-58
2023/12/23 01:59:56;;;;;;;3.85;1.50;;;23.10;39.30;;;;;;6174635;28;82355;-58
2023/12/23 02:02:57;;;;;;;2.55;1.38;;;23.10;39.40;;;;;;6168672;28;80974;-59
2023/12/23 02:05:57;;;;;;;2.97;1.30;;;23.10;39.30;;;;;;6169259;28;81318;-59
2023/12/23 02:08:58;;;;;;;1.92;1.27;;;23.20;39.50;;;;;;6170180;28;82027;-59
2023/12/23 02:11:58;;;;;;;3.90;1.40;;;23.10;39.60;;;;;;6166302;28;83406;-64
2023/12/23 02:14:59;;;;;;;3.00;1.70;;;23.10;39.60;;;;;;6171692;28;81791;-64
2023/12/23 02:18:00;;;;;;;2.38;1.13;;;23.20;39.40;;;;;;6163057;28;81543;-64
2023/12/23 02:21:00;;;;;;;3.53;1.67;;;23.10;39.50;;;;;;6154270;28;80419;-64
2023/12/23 02:24:01;;;;;;;3.35;1.60;;;23.10;39.50;;;;;;6164257;28;80742;-64
2023/12/23 02:27:01;;;;;;;4.32;1.35;;;23.10;39.70;;;;;;6158213;28;80755;-68
2023/12/23 02:30:02;;;;;;;2.15;1.20;;;23.10;39.70;;;;;;6175186;28;83859;-59
2023/12/23 02:33:02;;;;;;;2.30;1.10;;;23.10;39.70;;;;;;6153247;28;81152;-59
2023/12/23 02:36:04;;;;;;;1.50;1.00;;;23.10;39.90;;;;;;6167844;28;83511;-58
2023/12/23 02:39:04;;;;;;;3.50;1.20;;;23.10;39.70;;;;;;6166764;28;80880;-59
2023/12/23 02:42:05;;;;;;;6.10;1.45;;;23.20;39.90;;;;;;6153590;28;80884;-59
2023/12/23 02:45:05;;;;;;;3.42;1.48;;;23.10;39.90;;;;;;6157082;28;81048;-59
2023/12/23 02:48:07;;;;;;;2.20;1.23;;;23.10;39.90;;;;;;6165738;28;81160;-58
2023/12/23 02:51:07;;;;;;;1.58;1.00;;;23.10;39.90;;;;;;6151920;28;80421;-59
2023/12/23 02:54:08;;;;;;;2.22;1.08;;;23.10;40.10;;;;;;6158346;28;80571;-59
2023/12/23 02:57:08;;;;;;;1.83;1.02;;;23.10;39.90;;;;;;6173658;28;80735;-57
2023/12/23 03:00:09;;;;;;;2.40;1.60;;;23.10;39.90;;;;;;6174611;28;80599;-59
2023/12/23 03:03:10;;;;;;;2.95;1.05;;;23.10;39.90;;;;;;6166784;28;80878;-57
2023/12/23 03:06:10;;;;;;;2.00;1.00;;;23.10;39.90;;;;;;6165358;28;83716;-65
2023/12/23 03:09:11;;;;;;;2.55;1.20;;;23.10;40.00;;;;;;6162675;28;82252;-66
2023/12/23 03:12:11;;;;;;;2.58;0.90;;;23.10;40.00;;;;;;6171808;28;80847;-65
2023/12/23 03:15:12;;;;;;;1.92;0.95;;;23.10;40.00;;;;;;6159983;28;83065;-65
2023/12/23 03:18:12;;;;;;;2.80;1.20;;;23.10;40.10;;;;;;6167829;28;81036;-66
2023/12/23 03:21:13;;;;;;;2.38;1.17;;;23.00;40.10;;;;;;6173733;28;80917;-65
2023/12/23 03:24:13;;;;;;;2.20;1.00;;;23.00;40.60;;;;;;6171625;28;86780;-66
2023/12/23 03:27:14;;;;;;;2.38;1.20;;;23.00;40.50;;;;;;6163997;28;80687;-65
2023/12/23 03:30:16;;;;;;;1.65;1.05;;;23.00;40.60;;;;;;6167745;28;80591;-65
2023/12/23 03:33:16;;;;;;;1.85;1.10;;;23.00;40.50;;;;;;6178791;28;81281;-65
2023/12/23 03:36:18;;;;;;;2.45;1.45;;;23.10;39.90;;;;;;6176450;28;83255;-65
2023/12/23 03:39:18;;;;;;;3.20;1.55;;;23.10;40.00;;;;;;6176044;28;81880;-65
2023/12/23 03:42:18;;;;;;;2.50;1.20;;;23.00;40.00;;;;;;6178091;28;83417;-66
2023/12/23 03:45:19;;;;;;;3.70;1.45;;;23.00;40.10;;;;;;6162820;28;80982;-56
2023/12/23 03:48:20;;;;;;;1.50;1.15;;;23.00;40.30;;;;;;6155249;28;80476;-58
2023/12/23 03:51:23;;;;;;;1.38;0.93;;;23.00;40.40;;;;;;6177474;28;84031;-58
2023/12/23 03:54:23;;;;;;;1.38;0.93;;;23.00;40.50;;;;;;6176994;28;82196;-58
2023/12/23 03:57:24;;;;;;;2.80;1.25;;;23.00;40.40;;;;;;6177388;28;80142;-58
2023/12/23 04:00:25;;;;;;;2.22;0.93;;;23.00;40.60;;;;;;6175363;28;81774;-57
2023/12/23 04:03:26;;;;;;;2.50;0.90;;;23.00;40.50;;;;;;6167621;28;83093;-59
2023/12/23 04:06:26;;;;;;;0.80;0.80;;;23.00;40.70;;;;;;6163224;28;81249;-57
2023/12/23 04:09:27;;;;;;;1.73;0.90;;;23.00;40.60;;;;;;6169337;28;80708;-58
2023/12/23 04:12:27;;;;;;;3.45;0.85;;;23.10;41.00;;;;;;6171818;28;80302;-59
2023/12/23 04:15:28;;;;;;;2.30;0.90;;;23.10;40.50;;;;;;6175359;28;83355;-58
2023/12/23 04:18:28;;;;;;;1.73;0.68;;;23.10;41.00;;;;;;6176341;28;83287;-58
2023/12/23 04:21:29;;;;;;;1.50;1.13;;;23.10;41.20;;;;;;6176876;28;83974;-67
2023/12/23 04:24:30;;;;;;;1.65;1.20;;;23.10;41.00;;;;;;6177370;28;81032;-65
2023/12/23 04:27:30;;;;;;;3.03;1.02;;;23.10;40.90;;;;;;6175371;28;83804;-65
2023/12/23 04:30:31;;;;;;;1.67;0.98;;;23.10;40.20;;;;;;6163008;28;82101;-64
2023/12/23 04:33:34;;;;;;;3.15;0.98;;;23.10;39.80;;;;;;6176838;28;80659;-63
2023/12/23 04:36:35;;;;;;;3.10;1.15;;;23.20;39.70;;;;;;6175291;28;83070;-66
2023/12/23 04:39:35;;;;;;;1.45;1.27;;;23.20;39.70;;;;;;6172439;28;82409;-59
2023/12/23 04:42:37;;;;;;;1.42;0.82;;;23.20;39.80;;;;;;6174278;28;83206;-58
2023/12/23 04:45:38;;;;;;;2.78;0.88;;;23.30;39.90;;;;;;6174552;28;82761;-60
2023/12/23 04:48:39;;;;;;;1.20;1.10;;;23.30;39.90;;;;;;6167232;28;80594;-60
2023/12/23 04:51:43;;;;;;;4.25;0.82;;;23.30;40.00;;;;;;6174153;28;83656;-60
2023/12/23 04:54:44;;;;;;;0.77;0.73;;;23.30;39.80;;;;;;6173927;28;82077;-60
2023/12/23 04:57:44;;;;;;;0.98;0.70;;;23.30;39.80;;;;;;6175294;28;80657;-57
2023/12/23 05:00:45;;;;;;;2.13;1.00;;;23.40;39.80;;;;;;6173925;28;81138;-59
2023/12/23 05:03:45;;;;;;;1.42;0.98;;;23.40;39.80;;;;;;6170097;28;83228;-59
2023/12/23 05:06:46;;;;;;;5.63;1.00;;;23.40;40.00;;;;;;6168351;28;81951;-56
2023/12/23 05:09:46;;;;;;;1.25;0.82;;;23.50;40.10;;;;;;6171157;28;80626;-62
2023/12/23 05:12:48;;;;;;;1.33;0.82;;;23.50;40.20;;;;;;6171345;28;83565;-59
2023/12/23 05:15:48;;;;;;;2.92;0.93;;;23.50;40.20;;;;;;6171289;28;82387;-71
2023/12/23 05:18:49;;;;;;;2.17;1.08;;;23.50;40.50;;;;;;6174718;28;83359;-71
2023/12/23 05:21:49;;;;;;;3.17;0.82;;;23.50;40.70;;;;;;6172887;28;82193;-66
2023/12/23 05:24:50;;;;;;;2.65;0.95;;;23.50;40.80;;;;;;6173265;28;85461;-65
2023/12/23 05:27:51;;;;;;;2.95;1.50;;;23.50;40.80;;;;;;6169765;28;81550;-67
2023/12/23 05:30:52;;;;;;;1.90;0.77;;;23.50;40.70;;;;;;6170053;28;81924;-66
2023/12/23 05:33:55;;;;;;;1.15;0.65;;;23.60;40.60;;;;;;6175661;28;80495;-57
2023/12/23 05:36:55;;;;;;;1.75;0.65;;;23.50;40.40;;;;;;6175195;28;80737;-58
2023/12/23 05:39:56;;;;;;;1.35;0.80;;;23.50;40.30;;;;;;6175079;28;80846;-59
2023/12/23 05:42:56;;;;;;;1.23;0.90;;;23.60;40.10;;;;;;6159699;28;80917;-59
2023/12/23 05:45:57;;;;;;;1.75;0.77;;;23.60;40.10;;;;;;6162041;28;81654;-58
2023/12/23 05:48:57;;;;;;;2.70;0.90;;;23.60;40.10;;;;;;6164547;28;80548;-59
2023/12/23 05:51:58;;;;;;;1.50;0.70;;;23.60;40.10;;;;;;6161597;28;80845;-66
2023/12/23 05:54:58;;;;;;;2.50;1.00;;;23.60;40.10;;;;;;6162598;28;80439;-65
2023/12/23 05:57:59;;;;;;;2.10;0.80;;;23.60;40.10;;;;;;6167976;28;80730;-64
2023/12/23 06:00:59;;;;;;;2.03;0.90;;;23.60;40.10;;;;;;6163783;28;80573;-64
2023/12/23 06:04:00;;;;;;;4.53;1.10;;;23.60;39.90;;;;;;6159855;28;80131;-63
2023/12/23 06:07:00;;;;;;;1.10;0.65;;;23.60;39.80;;;;;;6165007;28;80822;-63
2023/12/23 06:10:01;;;;;;;1.20;0.68;;;23.60;39.80;;;;;;6157428;28;80016;-62
2023/12/23 06:13:01;;;;;;;3.83;0.80;;;23.60;39.90;;;;;;6155147;28;80418;-62
2023/12/23 06:16:01;;;;;;;1.27;0.80;;;23.60;40.10;;;;;;6153476;28;80318;-62
2023/12/23 06:19:02;;;;;;;3.20;0.50;;;23.60;40.10;;;;;;6163472;28;81432;-62
2023/12/23 06:22:03;;;;;;;1.02;0.65;;;23.60;39.90;;;;;;6160842;28;81015;-62
2023/12/23 06:25:03;;;;;;;0.95;0.60;;;23.60;39.90;;;;;;6160645;28;80547;-65
2023/12/23 06:28:04;;;;;;;3.85;1.15;;;23.60;39.60;;;;;;6167556;28;80511;-66
2023/12/23 06:31:04;;;;;;;8.60;1.25;;;23.50;40.20;;;;;;6156256;28;80606;-68
2023/12/23 06:34:05;;;;;;;1.38;0.75;;;23.50;40.30;;;;;;6175285;28;81009;-66
2023/12/23 06:37:05;;;;;;;3.38;1.02;;;23.40;39.70;;;;;;6172443;28;83923;-67
2023/12/23 06:40:06;;;;;;;1.02;0.80;;;23.40;39.50;;;;;;6175571;28;80607;-65
2023/12/23 06:43:06;;;;;;;1.58;0.70;;;23.40;39.30;;;;;;6165830;28;83376;-71
2023/12/23 06:46:07;;;;;;;2.00;0.77;;;23.30;39.70;;;;;;6164637;28;80820;-65
2023/12/23 06:49:07;;;;;;;4.05;0.68;;;23.30;40.50;;;;;;6162740;28;80852;-62
2023/12/23 06:52:08;;;;;;;3.85;0.73;;;23.30;40.40;;;;;;6174393;28;80577;-64
2023/12/23 06:55:08;;;;;;;6.88;1.23;;;23.30;40.70;;;;;;6171507;28;82765;-64
2023/12/23 06:58:09;;;;;;;2.67;0.70;;;23.30;41.10;;;;;;6172831;28;83445;-66
2023/12/23 07:01:09;;;;;;;5.07;1.23;;;23.30;41.00;;;;;;6174619;28;81333;-65
2023/12/23 07:04:10;;;;;;;2.25;0.85;;;23.30;41.20;;;;;;6174720;28;80537;-64
2023/12/23 07:07:10;;;;;;;1.52;0.63;;;23.30;41.30;;;;;;6175893;28;81203;-60
2023/12/23 07:10:13;;;;;;;1.20;0.77;;;23.30;41.90;;;;;;6177685;28;80337;-64
2023/12/23 07:13:13;;;;;;;4.18;0.70;;;23.40;42.00;;;;;;6178641;28;80665;-63
2023/12/23 07:16:14;;;;;;;1.52;0.70;;;23.40;41.70;;;;;;6177708;28;81016;-70
2023/12/23 07:19:14;;;;;;;4.40;1.00;;;23.40;41.90;;;;;;6176884;28;81199;-63
2023/12/23 07:22:15;;;;;;;1.95;0.82;;;23.40;42.00;;;;;;6176850;28;80656;-65
2023/12/23 07:25:15;;;;;;;4.72;0.90;;;23.40;41.70;;;;;;6174276;28;82542;-68
2023/12/23 07:28:16;;;;;;;4.45;0.82;;;23.50;41.80;;;;;;6172439;28;83097;-66
2023/12/23 07:31:16;;;;;;;2.03;0.85;;;23.50;41.40;;;;;;6170345;28;80553;-70
2023/12/23 07:34:17;;;;;;;4.05;1.17;;;23.50;42.20;;;;;;6177930;28;80407;-68
2023/12/23 07:37:17;;;;;;;3.38;0.95;;;23.50;41.80;;;;;;6177825;28;80533;-72
2023/12/23 07:40:18;;;;;;;1.83;0.50;;;23.60;42.20;;;;;;6177797;28;80494;-73
2023/12/23 07:43:18;;;;;;;5.80;1.10;;;23.50;42.10;;;;;;6163267;28;80587;-58
2023/12/23 07:46:18;;;;;;;1.73;0.85;;;23.50;41.90;;;;;;6169925;28;80310;-55
2023/12/23 07:49:19;;;;;;;1.60;0.77;;;23.50;41.70;;;;;;6162177;28;80479;-58
2023/12/23 07:52:20;;;;;;;3.00;0.95;;;23.60;41.90;;;;;;6174178;28;80455;-63
2023/12/23 07:55:20;;;;;;;2.65;1.20;;;23.50;41.30;;;;;;6173360;28;82536;-61
2023/12/23 07:58:20;;;;;;;3.67;1.30;;;23.40;37.60;;;;;;6174627;28;82947;-59
2023/12/23 08:01:21;;;;;;;2.05;0.80;;;23.10;36.30;;;;;;6174923;28;80373;-60
2023/12/23 08:04:22;;;;;;;2.22;1.00;;;22.90;35.50;;;;;;6153790;28;81350;-63
2023/12/23 08:07:22;;;;;;;4.28;1.55;;;22.70;35.10;;;;;;6140803;28;81796;-59
2023/12/23 08:10:23;;;;;;;7.55;1.75;;;22.60;35.30;;;;;;6147629;28;81009;-60
2023/12/23 08:13:23;;;;;;;4.25;1.45;;;22.50;35.30;;;;;;6159394;28;83823;-62
2023/12/23 08:16:24;;;;;;;5.38;1.20;;;22.40;35.80;;;;;;6148674;28;83376;-62
2023/12/23 08:19:25;;;;;;;2.40;1.08;;;22.30;34.90;;;;;;6156601;28;80890;-62
2023/12/23 08:22:25;;;;;;;3.53;1.30;;;22.30;34.90;;;;;;6165457;28;81052;-60
2023/12/23 08:25:26;;;;;;;1.23;1.13;;;22.20;35.40;;;;;;6157539;28;80875;-61
2023/12/23 08:28:26;;;;;;;3.05;1.23;;;22.10;34.30;;;;;;6166440;28;83355;-62
2023/12/23 08:31:27;;;;;;;3.20;0.80;;;22.10;34.90;;;;;;6174502;28;81055;-61
2023/12/23 08:34:28;;;;;;;4.32;0.95;;;22.20;37.40;;;;;;6170467;28;81775;-59
2023/12/23 08:37:28;;;;;;;2.20;0.80;;;22.30;39.00;;;;;;6169885;28;81830;-59
2023/12/23 08:40:29;;;;;;;1.67;0.90;;;22.50;39.00;;;;;;6165337;28;82198;-61
2023/12/23 08:43:29;;;;;;;42.08;20.77;;;22.60;39.60;;;;;;6176673;28;80686;-58
2023/12/23 08:46:30;;;;;;;152.15;77.05;;;22.70;39.70;;;;;;6175465;28;83273;-59
2023/12/23 08:49:30;;;;;;;231.60;117.13;;;22.80;40.00;;;;;;6161977;28;83564;-59
2023/12/23 08:52:31;;;;;;;327.67;161.60;;;22.90;40.20;;;;;;6158068;28;88591;-59
2023/12/23 08:55:31;;;;;;;337.02;171.23;;;23.00;40.20;;;;;;6165199;28;86280;-75
2023/12/23 08:58:32;;;;;;;264.88;131.27;;;23.00;40.00;;;;;;6164253;28;89940;-72
2023/12/23 09:01:32;;;;;;;226.43;111.10;;;23.00;40.60;;;;;;6157981;28;86211;-75
2023/12/23 09:04:34;;;;;;;259.63;126.28;;;23.10;41.00;;;;;;6172024;28;85652;-74
2023/12/23 09:07:34;;;;;;;267.08;130.32;;;23.20;40.80;;;;;;6158707;28;92374;-73
2023/12/23 09:10:35;;;;;;;291.48;142.90;;;23.20;40.60;;;;;;6167680;28;86299;-68
2023/12/23 09:13:35;;;;;;;299.58;139.52;;;23.30;40.70;;;;;;6160012;28;86685;-69
2023/12/23 09:16:36;;;;;;;291.90;144.63;;;23.30;40.80;;;;;;6164517;28;88468;-60
2023/12/23 09:19:36;;;;;;;260.08;121.50;;;23.50;40.90;;;;;;6168319;28;85784;-59
2023/12/23 09:22:36;;;;;;;218.32;106.88;;;23.60;41.10;;;;;;6167363;28;86688;-59
2023/12/23 09:25:37;;;;;;;199.43;98.47;;;23.60;41.30;;;;;;6162250;28;85660;-59
2023/12/23 09:28:37;;;;;;;180.73;89.55;;;23.70;41.80;;;;;;6173799;28;85346;-59
2023/12/23 09:31:38;;;;;;;163.70;83.30;;;23.80;42.50;;;;;;6172425;28;83434;-58
2023/12/23 09:34:38;;;;;;;140.70;69.32;;;23.80;42.90;;;;;;6172981;28;83897;-54
2023/12/23 09:37:39;;;;;;;148.02;67.47;;;23.90;43.30;;;;;;6167017;28;82955;-58
2023/12/23 09:40:39;;;;;;;130.85;66.05;;;24.00;44.10;;;;;;6167630;28;83000;-59
2023/12/23 09:43:40;;;;;;;118.93;57.80;;;24.00;44.90;;;;;;6172604;28;83353;-59
2023/12/23 09:46:40;;;;;;;115.80;58.45;;;24.00;46.40;;;;;;6166293;28;83067;-58
2023/12/23 09:49:41;;;;;;;107.38;51.53;;;24.00;46.80;;;;;;6168708;28;86001;-59
2023/12/23 09:52:41;;;;;;;103.35;51.65;;;24.00;48.50;;;;;;6171151;28;83766;-63
2023/12/23 09:55:42;;;;;;;101.90;50.63;;;24.00;49.50;;;;;;6168560;28;83837;-59
2023/12/23 09:58:42;;;;;;;97.32;50.40;;;24.00;50.40;;;;;;6172988;28;83790;-59
2023/12/23 10:01:43;;;;;;;90.70;42.97;;;24.10;51.60;;;;;;6173278;28;83426;-59
2023/12/23 10:04:43;;;;;;;84.35;40.00;;;24.00;51.00;;;;;;6171823;28;83516;-58
2023/12/23 10:07:44;;;;;;;79.90;39.03;;;24.00;49.80;;;;;;6171991;28;84470;-59
2023/12/23 10:10:46;;;;;;;80.47;37.13;;;24.00;49.30;;;;;;6172133;28;83856;-71
2023/12/23 10:13:46;;;;;;;68.25;33.78;;;24.00;49.00;;;;;;6171306;28;83799;-71
2023/12/23 10:16:47;;;;;;;64.82;32.50;;;24.00;48.40;;;;;;6171913;28;83299;-72
2023/12/23 10:19:48;;;;;;;54.30;29.38;;;24.00;48.20;;;;;;6172413;28;85789;-73
2023/12/23 10:22:48;;;;;;;56.67;27.60;;;24.00;47.60;;;;;;6171824;28;82706;-72
2023/12/23 10:25:49;;;;;;;52.33;26.15;;;24.00;46.80;;;;;;6172206;28;82939;-73
2023/12/23 10:28:49;;;;;;;51.45;25.65;;;24.00;46.20;;;;;;6171907;28;83713;-74
2023/12/23 10:31:50;;;;;;;47.15;23.27;;;24.00;45.70;;;;;;6152614;28;85062;-70
2023/12/23 10:34:51;;;;;;;40.75;21.80;;;24.00;45.30;;;;;;6159285;28;84091;-69
2023/12/23 10:37:51;;;;;;;36.00;20.23;;;24.00;44.90;;;;;;6139268;28;83633;-70
2023/12/23 10:40:52;;;;;;;37.08;19.55;;;24.00;44.50;;;;;;6166986;28;83402;-63
2023/12/23 10:43:52;;;;;;;36.58;19.02;;;24.00;44.40;;;;;;6164565;28;85315;-67
2023/12/23 10:46:53;;;;;;;37.58;19.55;;;23.90;44.30;;;;;;6167464;28;83631;-59
2023/12/23 10:49:56;;;;;;;37.38;18.88;;;23.90;44.30;;;;;;6166603;28;83945;-58
2023/12/23 10:52:56;;;;;;;36.03;17.30;;;23.90;44.80;;;;;;6171041;28;83131;-59
2023/12/23 10:55:57;;;;;;;34.90;16.60;;;23.90;44.90;;;;;;6172321;28;83366;-58
2023/12/23 10:58:57;;;;;;;31.77;15.80;;;23.90;45.20;;;;;;6164477;28;85027;-58
2023/12/23 11:01:58;;;;;;;33.38;15.85;;;23.90;46.00;;;;;;6154517;28;84866;-58
2023/12/23 11:04:58;;;;;;;29.10;13.13;;;23.90;45.90;;;;;;6148556;28;84979;-60
2023/12/23 11:07:59;;;;;;;26.85;13.63;;;23.90;45.70;;;;;;6160552;28;83154;-60
2023/12/23 11:10:59;;;;;;;43.03;13.57;;;23.90;45.50;;;;;;6172902;28;83438;-60
2023/12/23 11:14:00;;;;;;;24.48;12.95;;;23.80;45.30;;;;;;6173798;28;83368;-60
2023/12/23 11:17:00;;;;;;;27.25;12.27;;;23.80;45.20;;;;;;6170922;28;83800;-59
2023/12/23 11:20:01;;;;;;;28.17;11.85;;;23.80;44.80;;;;;;6174174;28;83110;-59
2023/12/23 11:23:02;;;;;;;28.17;11.05;;;23.80;44.80;;;;;;6175264;28;83481;-59
2023/12/23 11:26:02;;;;;;;22.63;10.40;;;23.80;45.30;;;;;;6173991;28;83989;-60
2023/12/23 11:29:03;;;;;;;24.02;10.60;;;23.80;45.80;;;;;;6174204;28;83383;-59
2023/12/23 11:32:03;;;;;;;18.75;10.02;;;23.80;45.10;;;;;;6151356;28;84115;-61
2023/12/23 11:35:04;;;;;;;18.48;9.65;;;23.70;44.50;;;;;;6163287;28;85473;-60
2023/12/23 11:38:05;;;;;;;18.67;9.98;;;23.70;44.40;;;;;;6151402;28;83086;-60
2023/12/23 11:41:06;;;;;;;22.83;9.18;;;23.70;44.70;;;;;;6165430;28;82993;-67
2023/12/23 11:44:06;;;;;;;18.70;8.88;;;23.70;44.10;;;;;;6160807;28;83584;-66
2023/12/23 11:47:07;;;;;;;17.30;8.60;;;23.70;44.80;;;;;;6150437;28;81365;-67
2023/12/23 11:50:07;;;;;;;13.82;7.25;;;23.70;44.80;;;;;;6170146;28;80602;-67
2023/12/23 11:53:08;;;;;;;17.48;7.65;;;23.60;45.10;;;;;;6166718;28;80710;-66
2023/12/23 11:56:08;;;;;;;15.80;8.07;;;23.70;45.60;;;;;;6165253;28;81061;-68
2023/12/23 11:59:09;;;;;;;15.38;7.70;;;23.70;46.20;;;;;;6166363;28;80243;-66
2023/12/23 12:02:09;;;;;;;19.40;7.90;;;23.70;47.50;;;;;;6174415;28;80539;-68
2023/12/23 12:05:10;;;;;;;13.80;7.57;;;23.70;48.20;;;;;;6161520;28;80779;-68
2023/12/23 12:08:10;;;;;;;16.42;7.97;;;23.70;48.40;;;;;;6149520;28;82635;-70
2023/12/23 12:11:12;;;;;;;17.15;7.43;;;23.70;48.60;;;;;;6160935;28;82525;-69
2023/12/23 12:14:12;;;;;;;15.82;6.85;;;23.70;48.70;;;;;;6152848;28;80953;-69
2023/12/23 12:17:13;;;;;;;14.82;6.32;;;23.70;49.30;;;;;;6151878;28;81657;-59
2023/12/23 12:20:13;;;;;;;10.85;6.10;;;23.80;50.00;;;;;;6150258;28;86166;-61
2023/12/23 12:23:14;;;;;;;14.43;6.97;;;23.70;50.40;;;;;;6155632;28;82681;-60
2023/12/23 12:26:15;;;;;;;12.65;6.18;;;23.80;51.00;;;;;;6155714;28;81390;-60
2023/12/23 12:29:16;;;;;;;13.73;5.95;;;23.80;51.40;;;;;;6155689;28;81397;-63
2023/12/23 12:32:16;;;;;;;11.73;5.68;;;23.70;52.20;;;;;;6159004;28;81403;-63
2023/12/23 12:35:17;;;;;;;9.65;4.82;;;23.70;53.30;;;;;;6145524;28;81113;-62
2023/12/23 12:38:18;;;;;;;12.55;5.60;;;23.80;52.90;;;;;;6150293;28;81688;-62
2023/12/23 12:41:18;;;;;;;11.25;4.90;;;23.80;52.70;;;;;;6151539;28;81700;-62
2023/12/23 12:44:19;;;;;;;10.82;4.78;;;23.80;52.40;;;;;;6158368;28;80589;-62
2023/12/23 12:47:20;;;;;;;10.18;5.32;;;23.70;51.60;;;;;;6157638;28;82193;-64
2023/12/23 12:50:20;;;;;;;8.05;4.20;;;23.70;51.40;;;;;;6141837;28;82751;-63
2023/12/23 12:53:21;;;;;;;9.43;4.18;;;23.70;51.00;;;;;;6141233;28;82088;-63
2023/12/23 12:56:22;;;;;;;9.20;4.60;;;23.70;50.80;;;;;;6158096;28;80950;-62
2023/12/23 12:59:24;;;;;;;9.63;5.28;;;23.70;50.60;;;;;;6150062;28;81230;-62
2023/12/23 13:02:24;;;;;;;8.23;3.72;;;23.70;49.90;;;;;;6143494;28;82903;-63
2023/12/23 13:05:25;;;;;;;8.02;4.18;;;23.70;49.60;;;;;;6142327;28;81792;-65
2023/12/23 13:08:25;;;;;;;6.70;3.35;;;23.70;49.30;;;;;;6141785;28;80505;-62
2023/12/23 13:11:26;;;;;;;4.82;3.42;;;23.70;49.20;;;;;;6152512;28;81120;-63
2023/12/23 13:14:26;;;;;;;6.55;3.65;;;23.70;48.90;;;;;;6157600;28;81088;-63
2023/12/23 13:17:27;;;;;;;8.10;3.20;;;23.70;48.60;;;;;;6145933;28;84776;-64
2023/12/23 13:20:27;;;;;;;5.80;2.88;;;23.70;48.80;;;;;;6146841;28;81952;-69
2023/12/23 13:23:28;;;;;;;6.57;3.10;;;23.70;49.20;;;;;;6151785;28;80573;-74
2023/12/23 13:26:29;;;;;;;6.75;3.15;;;23.60;49.00;;;;;;6168319;28;80634;-71
2023/12/23 13:29:29;;;;;;;10.10;3.35;;;23.60;48.80;;;;;;6169409;28;81124;-70
2023/12/23 13:32:32;;;;;;;7.38;2.80;;;23.60;48.10;;;;;;6169491;28;80711;-62
2023/12/23 13:35:32;;;;;;;6.90;3.00;;;23.60;48.80;;;;;;6172477;28;81280;-63
2023/12/23 13:38:33;;;;;;;6.00;3.40;;;23.60;48.90;;;;;;6173460;28;82858;-61
2023/12/23 13:41:33;;;;;;;8.15;3.20;;;23.60;48.00;;;;;;6167082;28;81068;-64
2023/12/23 13:44:35;;;;;;;4.70;2.85;;;23.60;48.00;;;;;;6164451;28;80541;-63
2023/12/23 13:47:36;;;;;;;4.50;2.60;;;23.60;47.80;;;;;;6163929;28;83243;-63
2023/12/23 13:50:36;;;;;;;9.80;3.13;;;23.60;47.50;;;;;;6174803;28;80622;-64
2023/12/23 13:53:37;;;;;;;10.00;3.42;;;23.60;47.90;;;;;;6172409;28;80226;-62
2023/12/23 13:56:37;;;;;;;6.55;2.50;;;23.60;48.20;;;;;;6173599;28;80491;-63
2023/12/23 13:59:38;;;;;;;6.85;3.08;;;23.50;47.70;;;;;;6175352;28;80756;-65
2023/12/23 14:02:38;;;;;;;7.10;2.97;;;23.50;47.50;;;;;;6164688;28;80431;-62
2023/12/23 14:05:39;;;;;;;10.82;2.78;;;23.50;48.10;;;;;;6160038;28;81455;-60
2023/12/23 14:08:39;;;;;;;6.93;2.92;;;23.50;49.00;;;;;;6173598;28;81290;-59
2023/12/23 14:11:40;;;;;;;9.23;3.47;;;23.50;49.20;;;;;;6166000;28;80686;-60
2023/12/23 14:14:40;;;;;;;9.02;2.60;;;23.60;48.60;;;;;;6171946;28;81171;-60
2023/12/23 14:17:41;;;;;;;24.75;11.77;;;23.50;48.00;;;;;;6171482;28;86476;-60
2023/12/23 14:20:41;;;;;;;16.30;8.60;;;23.50;48.10;;;;;;6171848;28;83301;-67
2023/12/23 14:23:42;;;;;;;18.23;9.38;;;23.50;48.00;;;;;;6175494;28;83752;-63
2023/12/23 14:26:42;;;;;;;17.60;8.18;;;23.50;46.90;;;;;;6174276;28;80607;-64
2023/12/23 14:29:48;;;;;;;15.13;7.13;;;23.50;47.20;;;;;;6174272;28;80772;-67
2023/12/23 14:32:48;;;;;;;15.48;7.20;;;23.50;47.60;;;;;;6163131;28;81152;-62
2023/12/23 14:35:49;;;;;;;19.63;9.52;;;23.50;48.10;;;;;;6161884;28;80163;-66
2023/12/23 14:38:49;;;;;;;61.63;33.05;;;23.50;48.10;;;;;;6163031;28;84287;-66
2023/12/23 14:41:50;;;;;;;107.65;58.90;;;23.50;48.30;;;;;;6161815;28;82878;-67
2023/12/23 14:44:50;;;;;;;160.35;86.07;;;23.50;48.40;;;;;;6168996;28;83494;-66
2023/12/23 14:47:51;;;;;;;177.63;89.68;;;23.60;48.40;;;;;;6161591;28;83203;-66
2023/12/23 14:50:51;;;;;;;169.85;92.70;;;23.50;48.60;;;;;;6164548;28;84506;-65
2023/12/23 14:53:52;;;;;;;193.15;108.70;;;23.60;48.30;;;;;;6165481;28;83338;-66
2023/12/23 14:56:52;;;;;;;185.20;103.95;;;23.60;47.30;;;;;;6166278;28;85351;-66
2023/12/23 14:59:53;;;;;;;222.38;117.40;;;23.70;47.50;;;;;;6166376;28;85625;-65
2023/12/23 15:02:53;;;;;;;227.13;122.18;;;23.70;47.20;;;;;;6160407;28;87126;-69
2023/12/23 15:05:54;;;;;;;225.93;124.28;;;23.70;47.00;;;;;;6164155;28;85961;-71
2023/12/23 15:08:55;;;;;;;261.95;136.88;;;23.80;47.00;;;;;;6166548;28;86274;-67
2023/12/23 15:11:55;;;;;;;276.95;145.35;;;23.80;46.90;;;;;;6167375;28;85551;-66
2023/12/23 15:14:56;;;;;;;325.38;168.40;;;23.80;47.00;;;;;;6167687;28;86112;-62
2023/12/23 15:17:57;;;;;;;111.45;54.47;;;23.80;46.60;;;;;;6156787;28;88488;-62
2023/12/23 15:20:57;;;;;;;150.57;78.72;;;23.80;42.10;;;;;;6171538;28;84457;-82
2023/12/23 15:23:58;;;;;;;141.77;73.20;;;23.60;45.60;;;;;;6166623;28;83558;-76
2023/12/23 15:26:59;;;;;;;126.00;65.13;;;23.70;45.90;;;;;;6163185;28;83348;-74
2023/12/23 15:30:01;;;;;;;117.18;60.83;;;23.70;45.40;;;;;;6161418;28;87375;-71